sensor_id;sensor_type;location;lat;lon;timestamp;temperature;humidity
16655;DHT22;8441;51.344;7.022;2023-01-28T00:00:37;2.00;99.90
16655;DHT22;8441;51.344;7.022;2023-01-28T00:03:04;2.00;99.90
16655;DHT22;8441;51.344;7.022;2023-01-28T00:05:31;1.90;99.90
16655;DHT22;8441;51.344;7.022;2023-01-28T00:07:58;1.90;99.90
16655;DHT22;8441;51.344;7.022;2023-01-28T00:10:25;1.90;99.90
16655;DHT22;8441;51.344;7.022;2023-01-28T00:12:54;1.90;99.90
16655;DHT22;8441;51.344;7.022;2023-01-28T00:15:21;1.90;99.90
16655;DHT22;8441;51.344;7.022;2023-01-28T00:17:50;1.80;99.90
16655;DHT22;8441;51.344;7.022;2023-01-28T00:20:18;1.80;99.90
16655;DHT22;8441;51.344;7.022;2023-01-28T00:22:46;1.80;99.90
16655;DHT22;8441;51.344;7.022;2023-01-28T00:25:14;1.80;99.90
16655;DHT22;8441;51.344;7.022;2023-01-28T00:27:41;1.80;99.90
16655;DHT22;8441;51.344;7.022;2023-01-28T00:30:12;1.80;99.90
16655;DHT22;8441;51.344;7.022;2023-01-28T00:32:39;1.80;99.90
16655;DHT22;8441;51.344;7.022;2023-01-28T00:35:07;1.80;99.90
16655;DHT22;8441;51.344;7.022;2023-01-28T00:37:35;1.80;99.90
16655;DHT22;8441;51.344;7.022;2023-01-28T00:40:03;1.90;99.90
16655;DHT22;8441;51.344;7.022;2023-01-28T00:42:30;1.80;99.90
16655;DHT22;8441;51.344;7.022;2023-01-28T00:44:58;1.80;99.90
16655;DHT22;8441;51.344;7.022;2023-01-28T00:47:26;1.80;99.90
16655;DHT22;8441;51.344;7.022;2023-01-28T00:49:54;1.80;99.90
16655;DHT22;8441;51.344;7.022;2023-01-28T00:52:21;1.80;99.90
16655;DHT22;8441;51.344;7.022;2023-01-28T00:54:48;1.70;99.90
16655;DHT22;8441;51.344;7.022;2023-01-28T00:57:15;1.70;99.90
16655;DHT22;8441;51.344;7.022;2023-01-28T00:59:42;1.80;99.90
16655;DHT22;8441;51.344;7.022;2023-01-28T01:02:09;1.70;99.90
16655;DHT22;8441;51.344;7.022;2023-01-28T01:04:41;1.70;99.90
16655;DHT22;8441;51.344;7.022;2023-01-28T01:07:21;1.70;99.90
16655;DHT22;8441;51.344;7.022;2023-01-28T01:09:58;1.70;99.90
16655;DHT22;8441;51.344;7.022;2023-01-28T01:12:25;1.70;99.90
16655;DHT22;8441;51.344;7.022;2023-01-28T01:14:52;1.70;99.90
16655;DHT22;8441;51.344;7.022;2023-01-28T01:17:20;1.70;99.90
16655;DHT22;8441;51.344;7.022;2023-01-28T01:19:49;1.70;99.90
16655;DHT22;8441;51.344;7.022;2023-01-28T01:22:16;1.70;99.90
16655;DHT22;8441;51.344;7.022;2023-01-28T01:24:43;1.70;99.90
16655;DHT22;8441;51.344;7.022;2023-01-28T01:27:10;1.70;99.90
16655;DHT22;8441;51.344;7.022;2023-01-28T01:29:37;1.70;99.90
16655;DHT22;8441;51.344;7.022;2023-01-28T01:32:04;1.70;99.90
16655;DHT22;8441;51.344;7.022;2023-01-28T01:34:32;1.60;99.90
16655;DHT22;8441;51.344;7.022;2023-01-28T01:37:00;1.60;99.90
16655;DHT22;8441;51.344;7.022;2023-01-28T01:39:28;1.60;99.90
16655;DHT22;8441;51.344;7.022;2023-01-28T01:41:56;1.70;99.90
16655;DHT22;8441;51.344;7.022;2023-01-28T01:44:51;1.60;99.90
16655;DHT22;8441;51.344;7.022;2023-01-28T01:47:22;1.50;99.90
16655;DHT22;8441;51.344;7.022;2023-01-28T01:49:51;1.50;99.90
16655;DHT22;8441;51.344;7.022;2023-01-28T01:52:25;1.40;99.90
16655;DHT22;8441;51.344;7.022;2023-01-28T01:54:56;1.50;99.90
16655;DHT22;8441;51.344;7.022;2023-01-28T01:57:28;1.50;99.90
16655;DHT22;8441;51.344;7.022;2023-01-28T01:59:57;1.50;99.90
16655;DHT22;8441;51.344;7.022;2023-01-28T02:02:33;1.50;99.90
16655;DHT22;8441;51.344;7.022;2023-01-28T02:05:02;1.50;99.90
16655;DHT22;8441;51.344;7.022;2023-01-28T02:07:31;1.50;99.90
16655;DHT22;8441;51.344;7.022;2023-01-28T02:09:59;1.50;99.90
16655;DHT22;8441;51.344;7.022;2023-01-28T02:12:29;1.50;99.90
16655;DHT22;8441;51.344;7.022;2023-01-28T02:15:02;1.40;99.90
16655;DHT22;8441;51.344;7.022;2023-01-28T02:17:30;1.40;99.90
16655;DHT22;8441;51.344;7.022;2023-01-28T02:20:00;1.40;99.90
16655;DHT22;8441;51.344;7.022;2023-01-28T02:25:56;1.30;99.90
16655;DHT22;8441;51.344;7.022;2023-01-28T02:28:31;1.30;99.90
16655;DHT22;8441;51.344;7.022;2023-01-28T02:31:05;1.30;99.90
16655;DHT22;8441;51.344;7.022;2023-01-28T02:33:38;1.30;99.90
16655;DHT22;8441;51.344;7.022;2023-01-28T02:36:16;1.30;99.90
16655;DHT22;8441;51.344;7.022;2023-01-28T02:38:47;1.40;99.90
16655;DHT22;8441;51.344;7.022;2023-01-28T02:41:24;1.30;99.90
16655;DHT22;8441;51.344;7.022;2023-01-28T02:43:55;1.30;99.90
16655;DHT22;8441;51.344;7.022;2023-01-28T02:46:33;1.30;99.90
16655;DHT22;8441;51.344;7.022;2023-01-28T02:49:23;1.20;99.90
16655;DHT22;8441;51.344;7.022;2023-01-28T02:52:29;1.20;99.90
16655;DHT22;8441;51.344;7.022;2023-01-28T02:55:20;1.20;99.90
16655;DHT22;8441;51.344;7.022;2023-01-28T02:57:59;1.20;99.90
16655;DHT22;8441;51.344;7.022;2023-01-28T03:00:36;1.20;99.90
16655;DHT22;8441;51.344;7.022;2023-01-28T03:03:14;1.20;99.90
16655;DHT22;8441;51.344;7.022;2023-01-28T03:05:44;1.10;99.90
16655;DHT22;8441;51.344;7.022;2023-01-28T03:08:31;1.20;99.90
16655;DHT22;8441;51.344;7.022;2023-01-28T03:11:16;1.10;99.90
16655;DHT22;8441;51.344;7.022;2023-01-28T03:14:01;1.10;99.90
16655;DHT22;8441;51.344;7.022;2023-01-28T03:16:48;1.10;99.90
16655;DHT22;8441;51.344;7.022;2023-01-28T03:19:34;1.10;99.90
16655;DHT22;8441;51.344;7.022;2023-01-28T03:22:19;1.10;99.90
16655;DHT22;8441;51.344;7.022;2023-01-28T03:25:05;1.10;99.90
16655;DHT22;8441;51.344;7.022;2023-01-28T03:27:55;1.10;99.90
16655;DHT22;8441;51.344;7.022;2023-01-28T03:30:43;1.00;99.90
16655;DHT22;8441;51.344;7.022;2023-01-28T03:33:31;1.00;99.90
16655;DHT22;8441;51.344;7.022;2023-01-28T03:36:18;1.00;99.90
16655;DHT22;8441;51.344;7.022;2023-01-28T03:39:03;1.00;99.90
16655;DHT22;8441;51.344;7.022;2023-01-28T03:41:30;1.00;99.90
16655;DHT22;8441;51.344;7.022;2023-01-28T03:43:57;0.90;99.90
16655;DHT22;8441;51.344;7.022;2023-01-28T03:46:42;1.00;99.90
16655;DHT22;8441;51.344;7.022;2023-01-28T03:49:11;0.90;99.90
16655;DHT22;8441;51.344;7.022;2023-01-28T03:51:38;1.00;99.90
16655;DHT22;8441;51.344;7.022;2023-01-28T03:54:05;1.00;99.90
16655;DHT22;8441;51.344;7.022;2023-01-28T03:56:33;1.00;99.90
16655;DHT22;8441;51.344;7.022;2023-01-28T03:59:02;1.00;99.90
16655;DHT22;8441;51.344;7.022;2023-01-28T04:01:29;0.90;99.90
16655;DHT22;8441;51.344;7.022;2023-01-28T04:03:57;1.00;99.90
16655;DHT22;8441;51.344;7.022;2023-01-28T04:06:25;0.90;99.90
16655;DHT22;8441;51.344;7.022;2023-01-28T04:08:53;0.90;99.90
16655;DHT22;8441;51.344;7.022;2023-01-28T04:11:24;0.90;99.90
16655;DHT22;8441;51.344;7.022;2023-01-28T04:13:51;0.90;99.90
16655;DHT22;8441;51.344;7.022;2023-01-28T04:16:19;0.90;99.90
16655;DHT22;8441;51.344;7.022;2023-01-28T04:18:47;0.90;99.90
16655;DHT22;8441;51.344;7.022;2023-01-28T04:21:14;1.00;99.90
16655;DHT22;8441;51.344;7.022;2023-01-28T04:23:42;0.90;99.90
16655;DHT22;8441;51.344;7.022;2023-01-28T04:26:09;0.90;99.90
16655;DHT22;8441;51.344;7.022;2023-01-28T04:28:37;0.90;99.90
16655;DHT22;8441;51.344;7.022;2023-01-28T04:31:04;0.90;99.90
16655;DHT22;8441;51.344;7.022;2023-01-28T04:33:31;0.90;99.90
16655;DHT22;8441;51.344;7.022;2023-01-28T04:35:58;0.90;99.90
16655;DHT22;8441;51.344;7.022;2023-01-28T04:38:25;0.90;99.90
16655;DHT22;8441;51.344;7.022;2023-01-28T04:40:54;0.90;99.90
16655;DHT22;8441;51.344;7.022;2023-01-28T04:43:21;0.80;99.90
16655;DHT22;8441;51.344;7.022;2023-01-28T04:45:48;0.90;99.90
16655;DHT22;8441;51.344;7.022;2023-01-28T04:48:16;0.80;99.90
16655;DHT22;8441;51.344;7.022;2023-01-28T04:50:43;0.80;99.90
16655;DHT22;8441;51.344;7.022;2023-01-28T04:53:11;0.80;99.90
16655;DHT22;8441;51.344;7.022;2023-01-28T04:55:38;0.80;99.90
16655;DHT22;8441;51.344;7.022;2023-01-28T04:58:07;0.80;99.90
16655;DHT22;8441;51.344;7.022;2023-01-28T05:00:34;0.80;99.90
16655;DHT22;8441;51.344;7.022;2023-01-28T05:03:01;0.80;99.90
16655;DHT22;8441;51.344;7.022;2023-01-28T05:05:28;0.70;99.90
16655;DHT22;8441;51.344;7.022;2023-01-28T05:07:57;0.70;99.90
16655;DHT22;8441;51.344;7.022;2023-01-28T05:10:25;0.70;99.90
16655;DHT22;8441;51.344;7.022;2023-01-28T05:12:52;0.70;99.90
16655;DHT22;8441;51.344;7.022;2023-01-28T05:15:21;0.80;99.90
16655;DHT22;8441;51.344;7.022;2023-01-28T05:17:49;0.80;99.90
16655;DHT22;8441;51.344;7.022;2023-01-28T05:20:16;0.80;99.90
16655;DHT22;8441;51.344;7.022;2023-01-28T05:22:43;0.70;99.90
16655;DHT22;8441;51.344;7.022;2023-01-28T05:25:10;0.70;99.90
16655;DHT22;8441;51.344;7.022;2023-01-28T05:27:37;0.70;99.90
16655;DHT22;8441;51.344;7.022;2023-01-28T05:30:06;0.70;99.90
16655;DHT22;8441;51.344;7.022;2023-01-28T05:32:34;0.60;99.90
16655;DHT22;8441;51.344;7.022;2023-01-28T05:35:02;0.70;99.90
16655;DHT22;8441;51.344;7.022;2023-01-28T05:37:29;0.70;99.90
16655;DHT22;8441;51.344;7.022;2023-01-28T05:39:56;0.70;99.90
16655;DHT22;8441;51.344;7.022;2023-01-28T05:42:23;0.60;99.90
16655;DHT22;8441;51.344;7.022;2023-01-28T05:44:50;0.60;99.90
16655;DHT22;8441;51.344;7.022;2023-01-28T05:47:17;0.60;99.90
16655;DHT22;8441;51.344;7.022;2023-01-28T05:49:46;0.60;99.90
16655;DHT22;8441;51.344;7.022;2023-01-28T05:52:13;0.60;99.90
16655;DHT22;8441;51.344;7.022;2023-01-28T05:54:41;0.60;99.90
16655;DHT22;8441;51.344;7.022;2023-01-28T05:57:08;0.60;99.90
16655;DHT22;8441;51.344;7.022;2023-01-28T05:59:35;0.60;99.90
16655;DHT22;8441;51.344;7.022;2023-01-28T06:02:02;0.60;99.90
16655;DHT22;8441;51.344;7.022;2023-01-28T06:04:29;0.60;99.90
16655;DHT22;8441;51.344;7.022;2023-01-28T06:06:58;0.60;99.90
16655;DHT22;8441;51.344;7.022;2023-01-28T06:09:25;0.50;99.90
16655;DHT22;8441;51.344;7.022;2023-01-28T06:11:52;0.50;99.90
16655;DHT22;8441;51.344;7.022;2023-01-28T06:14:19;0.60;99.90
16655;DHT22;8441;51.344;7.022;2023-01-28T06:16:46;0.50;99.90
16655;DHT22;8441;51.344;7.022;2023-01-28T06:19:15;0.50;99.90
16655;DHT22;8441;51.344;7.022;2023-01-28T06:21:42;0.50;99.90
16655;DHT22;8441;51.344;7.022;2023-01-28T06:24:10;0.40;99.90
16655;DHT22;8441;51.344;7.022;2023-01-28T06:26:38;0.40;99.90
16655;DHT22;8441;51.344;7.022;2023-01-28T06:29:06;0.40;99.90
16655;DHT22;8441;51.344;7.022;2023-01-28T06:31:33;0.50;99.90
16655;DHT22;8441;51.344;7.022;2023-01-28T06:34:00;0.50;99.90
16655;DHT22;8441;51.344;7.022;2023-01-28T06:36:27;0.50;99.90
16655;DHT22;8441;51.344;7.022;2023-01-28T06:38:54;0.50;99.90
16655;DHT22;8441;51.344;7.022;2023-01-28T06:41:23;0.50;99.90
16655;DHT22;8441;51.344;7.022;2023-01-28T06:43:50;0.40;99.90
16655;DHT22;8441;51.344;7.022;2023-01-28T06:46:17;0.50;99.90
16655;DHT22;8441;51.344;7.022;2023-01-28T06:48:45;0.50;99.90
16655;DHT22;8441;51.344;7.022;2023-01-28T06:51:12;0.40;99.90
16655;DHT22;8441;51.344;7.022;2023-01-28T06:53:39;0.30;99.90
16655;DHT22;8441;51.344;7.022;2023-01-28T06:56:06;0.40;99.90
16655;DHT22;8441;51.344;7.022;2023-01-28T06:58:36;0.40;99.90
16655;DHT22;8441;51.344;7.022;2023-01-28T07:01:03;0.40;99.90
16655;DHT22;8441;51.344;7.022;2023-01-28T07:03:30;0.30;99.90
16655;DHT22;8441;51.344;7.022;2023-01-28T07:05:57;0.40;99.90
16655;DHT22;8441;51.344;7.022;2023-01-28T07:08:24;0.40;99.90
16655;DHT22;8441;51.344;7.022;2023-01-28T07:10:51;0.30;99.90
16655;DHT22;8441;51.344;7.022;2023-01-28T07:13:18;0.30;99.90
16655;DHT22;8441;51.344;7.022;2023-01-28T07:15:47;0.30;99.90
16655;DHT22;8441;51.344;7.022;2023-01-28T07:18:15;0.30;99.90
16655;DHT22;8441;51.344;7.022;2023-01-28T07:20:42;0.40;99.90
16655;DHT22;8441;51.344;7.022;2023-01-28T07:23:10;0.40;99.90
16655;DHT22;8441;51.344;7.022;2023-01-28T07:25:38;0.40;99.90
16655;DHT22;8441;51.344;7.022;2023-01-28T07:28:05;0.40;99.90
16655;DHT22;8441;51.344;7.022;2023-01-28T07:30:32;0.30;99.90
16655;DHT22;8441;51.344;7.022;2023-01-28T07:33:01;0.30;99.90
16655;DHT22;8441;51.344;7.022;2023-01-28T07:35:28;0.40;99.90
16655;DHT22;8441;51.344;7.022;2023-01-28T07:37:59;0.50;99.90
16655;DHT22;8441;51.344;7.022;2023-01-28T07:40:27;0.40;99.90
16655;DHT22;8441;51.344;7.022;2023-01-28T07:42:54;0.50;99.90
16655;DHT22;8441;51.344;7.022;2023-01-28T07:45:22;0.50;99.90
16655;DHT22;8441;51.344;7.022;2023-01-28T07:47:54;0.50;99.90
16655;DHT22;8441;51.344;7.022;2023-01-28T07:50:23;0.50;99.90
16655;DHT22;8441;51.344;7.022;2023-01-28T07:52:50;0.50;99.90
16655;DHT22;8441;51.344;7.022;2023-01-28T07:55:17;0.50;99.90
16655;DHT22;8441;51.344;7.022;2023-01-28T07:57:50;0.50;99.90
16655;DHT22;8441;51.344;7.022;2023-01-28T08:00:18;0.50;99.90
16655;DHT22;8441;51.344;7.022;2023-01-28T08:02:47;0.50;99.90
16655;DHT22;8441;51.344;7.022;2023-01-28T08:05:15;0.50;99.90
16655;DHT22;8441;51.344;7.022;2023-01-28T08:07:45;0.50;99.90
16655;DHT22;8441;51.344;7.022;2023-01-28T08:10:13;0.50;99.90
16655;DHT22;8441;51.344;7.022;2023-01-28T08:12:49;0.50;99.90
16655;DHT22;8441;51.344;7.022;2023-01-28T08:15:16;0.50;99.90
16655;DHT22;8441;51.344;7.022;2023-01-28T08:17:43;0.50;99.90
16655;DHT22;8441;51.344;7.022;2023-01-28T08:20:11;0.60;99.90
16655;DHT22;8441;51.344;7.022;2023-01-28T08:22:39;0.60;99.90
16655;DHT22;8441;51.344;7.022;2023-01-28T08:25:07;0.60;99.90
16655;DHT22;8441;51.344;7.022;2023-01-28T08:27:35;0.50;99.90
16655;DHT22;8441;51.344;7.022;2023-01-28T08:30:03;0.50;99.90
16655;DHT22;8441;51.344;7.022;2023-01-28T08:32:30;0.60;99.90
16655;DHT22;8441;51.344;7.022;2023-01-28T08:34:58;0.60;99.90
16655;DHT22;8441;51.344;7.022;2023-01-28T08:37:25;0.60;99.90
16655;DHT22;8441;51.344;7.022;2023-01-28T08:39:52;0.60;99.90
16655;DHT22;8441;51.344;7.022;2023-01-28T08:42:21;0.60;99.90
16655;DHT22;8441;51.344;7.022;2023-01-28T08:44:48;0.60;99.90
16655;DHT22;8441;51.344;7.022;2023-01-28T08:47:15;0.70;99.90
16655;DHT22;8441;51.344;7.022;2023-01-28T08:49:43;0.70;99.90
16655;DHT22;8441;51.344;7.022;2023-01-28T08:52:10;0.70;99.90
16655;DHT22;8441;51.344;7.022;2023-01-28T08:54:37;0.80;99.90
16655;DHT22;8441;51.344;7.022;2023-01-28T08:57:04;0.90;99.90
16655;DHT22;8441;51.344;7.022;2023-01-28T08:59:33;0.90;99.90
16655;DHT22;8441;51.344;7.022;2023-01-28T09:02:00;0.90;99.90
16655;DHT22;8441;51.344;7.022;2023-01-28T09:04:27;0.90;99.90
16655;DHT22;8441;51.344;7.022;2023-01-28T09:06:54;0.90;99.90
16655;DHT22;8441;51.344;7.022;2023-01-28T09:09:21;0.80;99.90
16655;DHT22;8441;51.344;7.022;2023-01-28T09:11:49;0.70;99.90
16655;DHT22;8441;51.344;7.022;2023-01-28T09:14:16;0.70;99.90
16655;DHT22;8441;51.344;7.022;2023-01-28T09:16:44;0.60;99.90
16655;DHT22;8441;51.344;7.022;2023-01-28T09:19:12;0.60;99.90
16655;DHT22;8441;51.344;7.022;2023-01-28T09:21:39;0.70;99.90
16655;DHT22;8441;51.344;7.022;2023-01-28T09:24:09;0.70;99.90
16655;DHT22;8441;51.344;7.022;2023-01-28T09:26:37;0.70;99.90
16655;DHT22;8441;51.344;7.022;2023-01-28T09:29:04;0.60;99.90
16655;DHT22;8441;51.344;7.022;2023-01-28T09:31:31;0.60;99.90
16655;DHT22;8441;51.344;7.022;2023-01-28T09:34:00;0.60;99.90
16655;DHT22;8441;51.344;7.022;2023-01-28T09:36:28;0.70;99.90
16655;DHT22;8441;51.344;7.022;2023-01-28T09:38:56;0.70;99.90
16655;DHT22;8441;51.344;7.022;2023-01-28T09:41:25;0.80;99.90
16655;DHT22;8441;51.344;7.022;2023-01-28T09:44:02;0.80;99.90
16655;DHT22;8441;51.344;7.022;2023-01-28T09:46:33;0.80;99.90
16655;DHT22;8441;51.344;7.022;2023-01-28T09:49:08;0.90;99.90
16655;DHT22;8441;51.344;7.022;2023-01-28T09:51:42;0.90;99.90
16655;DHT22;8441;51.344;7.022;2023-01-28T09:54:17;0.90;99.90
16655;DHT22;8441;51.344;7.022;2023-01-28T09:56:47;0.90;99.90
16655;DHT22;8441;51.344;7.022;2023-01-28T09:59:19;0.90;99.90
16655;DHT22;8441;51.344;7.022;2023-01-28T10:01:52;0.90;99.90
16655;DHT22;8441;51.344;7.022;2023-01-28T10:04:29;1.00;99.90
16655;DHT22;8441;51.344;7.022;2023-01-28T10:07:13;1.00;99.90
16655;DHT22;8441;51.344;7.022;2023-01-28T10:09:46;1.10;99.90
16655;DHT22;8441;51.344;7.022;2023-01-28T10:12:38;1.10;99.90
16655;DHT22;8441;51.344;7.022;2023-01-28T10:15:27;1.20;99.90
16655;DHT22;8441;51.344;7.022;2023-01-28T10:18:00;1.20;99.90
16655;DHT22;8441;51.344;7.022;2023-01-28T10:20:34;1.10;99.90
16655;DHT22;8441;51.344;7.022;2023-01-28T10:23:06;1.10;99.90
16655;DHT22;8441;51.344;7.022;2023-01-28T10:25:36;1.00;99.90
16655;DHT22;8441;51.344;7.022;2023-01-28T10:28:09;1.00;99.90
16655;DHT22;8441;51.344;7.022;2023-01-28T10:30:42;1.10;99.90
16655;DHT22;8441;51.344;7.022;2023-01-28T10:33:17;1.00;99.90
16655;DHT22;8441;51.344;7.022;2023-01-28T10:35:46;1.00;99.90
16655;DHT22;8441;51.344;7.022;2023-01-28T10:38:15;1.10;99.90
16655;DHT22;8441;51.344;7.022;2023-01-28T10:40:43;1.30;99.90
16655;DHT22;8441;51.344;7.022;2023-01-28T10:43:14;1.20;99.90
16655;DHT22;8441;51.344;7.022;2023-01-28T10:45:50;1.30;99.90
16655;DHT22;8441;51.344;7.022;2023-01-28T10:48:23;1.30;99.90
16655;DHT22;8441;51.344;7.022;2023-01-28T10:50:54;1.30;99.90
16655;DHT22;8441;51.344;7.022;2023-01-28T10:53:34;1.30;99.90
16655;DHT22;8441;51.344;7.022;2023-01-28T10:56:02;1.20;99.90
16655;DHT22;8441;51.344;7.022;2023-01-28T10:58:32;1.20;99.90
16655;DHT22;8441;51.344;7.022;2023-01-28T11:01:02;1.30;99.90
16655;DHT22;8441;51.344;7.022;2023-01-28T11:03:30;1.40;99.90
16655;DHT22;8441;51.344;7.022;2023-01-28T11:06:01;1.40;99.90
16655;DHT22;8441;51.344;7.022;2023-01-28T11:08:30;1.50;99.90
16655;DHT22;8441;51.344;7.022;2023-01-28T11:10:58;1.40;99.90
16655;DHT22;8441;51.344;7.022;2023-01-28T11:13:27;1.50;99.90
16655;DHT22;8441;51.344;7.022;2023-01-28T11:15:59;1.50;99.90
16655;DHT22;8441;51.344;7.022;2023-01-28T11:18:30;1.50;99.90
16655;DHT22;8441;51.344;7.022;2023-01-28T11:21:02;1.30;99.90
16655;DHT22;8441;51.344;7.022;2023-01-28T11:23:32;1.40;99.90
16655;DHT22;8441;51.344;7.022;2023-01-28T11:26:03;1.40;99.90
16655;DHT22;8441;51.344;7.022;2023-01-28T11:28:32;1.30;99.90
16655;DHT22;8441;51.344;7.022;2023-01-28T11:31:01;1.20;99.90
16655;DHT22;8441;51.344;7.022;2023-01-28T11:33:33;1.20;99.90
16655;DHT22;8441;51.344;7.022;2023-01-28T11:36:12;1.10;99.90
16655;DHT22;8441;51.344;7.022;2023-01-28T11:38:49;1.10;99.90
16655;DHT22;8441;51.344;7.022;2023-01-28T11:41:17;1.00;99.90
16655;DHT22;8441;51.344;7.022;2023-01-28T11:43:45;1.00;99.90
16655;DHT22;8441;51.344;7.022;2023-01-28T11:46:30;1.00;99.90
16655;DHT22;8441;51.344;7.022;2023-01-28T11:49:04;1.10;99.90
16655;DHT22;8441;51.344;7.022;2023-01-28T11:51:39;1.20;99.90
16655;DHT22;8441;51.344;7.022;2023-01-28T11:54:25;1.20;99.90
16655;DHT22;8441;51.344;7.022;2023-01-28T11:57:10;1.40;99.90
16655;DHT22;8441;51.344;7.022;2023-01-28T11:59:52;1.50;99.90
16655;DHT22;8441;51.344;7.022;2023-01-28T12:02:34;1.50;99.90
16655;DHT22;8441;51.344;7.022;2023-01-28T12:05:18;1.50;99.90
16655;DHT22;8441;51.344;7.022;2023-01-28T12:07:55;1.30;99.90
16655;DHT22;8441;51.344;7.022;2023-01-28T12:10:34;1.20;99.90
16655;DHT22;8441;51.344;7.022;2023-01-28T12:13:15;1.20;99.90
16655;DHT22;8441;51.344;7.022;2023-01-28T12:16:02;1.00;99.90
16655;DHT22;8441;51.344;7.022;2023-01-28T12:18:44;1.00;99.90
16655;DHT22;8441;51.344;7.022;2023-01-28T12:21:22;1.10;99.90
16655;DHT22;8441;51.344;7.022;2023-01-28T12:24:08;1.10;99.90
16655;DHT22;8441;51.344;7.022;2023-01-28T12:26:45;1.10;99.90
16655;DHT22;8441;51.344;7.022;2023-01-28T12:29:21;1.20;99.90
16655;DHT22;8441;51.344;7.022;2023-01-28T12:32:07;1.40;99.90
16655;DHT22;8441;51.344;7.022;2023-01-28T12:35:06;1.60;99.90
16655;DHT22;8441;51.344;7.022;2023-01-28T12:37:46;1.80;99.90
16655;DHT22;8441;51.344;7.022;2023-01-28T12:40:35;1.90;99.90
16655;DHT22;8441;51.344;7.022;2023-01-28T12:43:10;2.10;99.90
16655;DHT22;8441;51.344;7.022;2023-01-28T12:45:41;2.10;99.90
16655;DHT22;8441;51.344;7.022;2023-01-28T12:48:12;2.10;99.90
16655;DHT22;8441;51.344;7.022;2023-01-28T12:50:46;2.10;99.90
16655;DHT22;8441;51.344;7.022;2023-01-28T12:53:21;2.10;99.90
16655;DHT22;8441;51.344;7.022;2023-01-28T12:55:53;2.10;99.90
16655;DHT22;8441;51.344;7.022;2023-01-28T12:58:26;2.20;99.90
16655;DHT22;8441;51.344;7.022;2023-01-28T13:01:03;2.20;99.90
16655;DHT22;8441;51.344;7.022;2023-01-28T13:03:37;2.10;99.90
16655;DHT22;8441;51.344;7.022;2023-01-28T13:06:09;2.00;99.90
16655;DHT22;8441;51.344;7.022;2023-01-28T13:08:40;1.90;99.90
16655;DHT22;8441;51.344;7.022;2023-01-28T13:11:13;1.80;99.90
16655;DHT22;8441;51.344;7.022;2023-01-28T13:13:42;1.70;99.90
16655;DHT22;8441;51.344;7.022;2023-01-28T13:16:11;1.60;99.90
16655;DHT22;8441;51.344;7.022;2023-01-28T13:18:44;1.70;99.90
16655;DHT22;8441;51.344;7.022;2023-01-28T13:21:15;1.70;99.90
16655;DHT22;8441;51.344;7.022;2023-01-28T13:23:44;1.90;99.90
16655;DHT22;8441;51.344;7.022;2023-01-28T13:26:30;2.10;99.90
16655;DHT22;8441;51.344;7.022;2023-01-28T13:29:16;2.20;99.90
16655;DHT22;8441;51.344;7.022;2023-01-28T13:31:46;2.30;99.90
16655;DHT22;8441;51.344;7.022;2023-01-28T13:34:32;2.20;99.90
16655;DHT22;8441;51.344;7.022;2023-01-28T13:37:14;2.30;99.90
16655;DHT22;8441;51.344;7.022;2023-01-28T13:39:47;2.30;99.90
16655;DHT22;8441;51.344;7.022;2023-01-28T13:42:24;2.40;99.90
16655;DHT22;8441;51.344;7.022;2023-01-28T13:44:52;2.30;99.90
16655;DHT22;8441;51.344;7.022;2023-01-28T13:47:23;2.10;99.90
16655;DHT22;8441;51.344;7.022;2023-01-28T13:49:55;2.00;99.90
16655;DHT22;8441;51.344;7.022;2023-01-28T13:52:26;2.00;99.90
16655;DHT22;8441;51.344;7.022;2023-01-28T13:54:59;2.00;99.90
16655;DHT22;8441;51.344;7.022;2023-01-28T13:58:08;2.10;99.90
16655;DHT22;8441;51.344;7.022;2023-01-28T14:00:49;2.00;99.90
16655;DHT22;8441;51.344;7.022;2023-01-28T14:03:46;1.80;99.90
16655;DHT22;8441;51.344;7.022;2023-01-28T14:09:39;1.80;99.90
16655;DHT22;8441;51.344;7.022;2023-01-28T14:15:47;1.90;99.90
16655;DHT22;8441;51.344;7.022;2023-01-28T14:18:24;1.80;99.90
16655;DHT22;8441;51.344;7.022;2023-01-28T14:20:54;1.60;99.90
16655;DHT22;8441;51.344;7.022;2023-01-28T14:23:22;1.70;99.90
16655;DHT22;8441;51.344;7.022;2023-01-28T14:26:12;1.70;99.90
16655;DHT22;8441;51.344;7.022;2023-01-28T14:28:47;1.70;99.90
16655;DHT22;8441;51.344;7.022;2023-01-28T14:31:25;1.50;99.90
16655;DHT22;8441;51.344;7.022;2023-01-28T14:33:53;1.30;99.90
16655;DHT22;8441;51.344;7.022;2023-01-28T14:36:20;1.30;99.90
16655;DHT22;8441;51.344;7.022;2023-01-28T14:38:49;1.30;99.90
16655;DHT22;8441;51.344;7.022;2023-01-28T14:41:22;1.40;99.90
16655;DHT22;8441;51.344;7.022;2023-01-28T14:43:53;1.30;99.90
16655;DHT22;8441;51.344;7.022;2023-01-28T14:46:30;1.30;99.90
16655;DHT22;8441;51.344;7.022;2023-01-28T14:49:15;1.20;99.90
16655;DHT22;8441;51.344;7.022;2023-01-28T14:52:05;1.20;99.90
16655;DHT22;8441;51.344;7.022;2023-01-28T14:54:46;1.20;99.90
16655;DHT22;8441;51.344;7.022;2023-01-28T14:57:36;1.10;99.90
16655;DHT22;8441;51.344;7.022;2023-01-28T15:00:17;1.20;99.90
16655;DHT22;8441;51.344;7.022;2023-01-28T15:02:46;1.20;99.90
16655;DHT22;8441;51.344;7.022;2023-01-28T15:05:16;1.20;99.90
16655;DHT22;8441;51.344;7.022;2023-01-28T15:07:44;1.10;99.90
16655;DHT22;8441;51.344;7.022;2023-01-28T15:10:18;1.10;99.90
16655;DHT22;8441;51.344;7.022;2023-01-28T15:12:50;1.10;99.90
16655;DHT22;8441;51.344;7.022;2023-01-28T15:15:23;1.10;99.90
16655;DHT22;8441;51.344;7.022;2023-01-28T15:17:53;1.10;99.90
16655;DHT22;8441;51.344;7.022;2023-01-28T15:20:23;1.10;99.90
16655;DHT22;8441;51.344;7.022;2023-01-28T15:22:51;1.00;99.90
16655;DHT22;8441;51.344;7.022;2023-01-28T15:25:20;1.00;99.90
16655;DHT22;8441;51.344;7.022;2023-01-28T15:27:49;0.90;99.90
16655;DHT22;8441;51.344;7.022;2023-01-28T15:30:20;1.00;99.90
16655;DHT22;8441;51.344;7.022;2023-01-28T15:32:58;0.90;99.90
16655;DHT22;8441;51.344;7.022;2023-01-28T15:35:25;0.80;99.90
16655;DHT22;8441;51.344;7.022;2023-01-28T15:37:52;0.80;99.90
16655;DHT22;8441;51.344;7.022;2023-01-28T15:40:21;0.70;99.90
16655;DHT22;8441;51.344;7.022;2023-01-28T15:42:52;0.80;99.90
16655;DHT22;8441;51.344;7.022;2023-01-28T15:45:22;0.70;99.90
16655;DHT22;8441;51.344;7.022;2023-01-28T15:47:52;0.60;99.90
16655;DHT22;8441;51.344;7.022;2023-01-28T15:50:29;0.40;99.90
16655;DHT22;8441;51.344;7.022;2023-01-28T15:52:57;0.40;99.90
16655;DHT22;8441;51.344;7.022;2023-01-28T15:55:33;0.40;99.90
16655;DHT22;8441;51.344;7.022;2023-01-28T15:58:18;0.30;99.90
16655;DHT22;8441;51.344;7.022;2023-01-28T16:00:47;0.20;99.90
16655;DHT22;8441;51.344;7.022;2023-01-28T16:03:19;0.20;99.90
16655;DHT22;8441;51.344;7.022;2023-01-28T16:05:57;0.20;99.90
16655;DHT22;8441;51.344;7.022;2023-01-28T16:08:28;0.10;99.90
16655;DHT22;8441;51.344;7.022;2023-01-28T16:11:00;0.00;99.90
16655;DHT22;8441;51.344;7.022;2023-01-28T16:13:29;0.00;99.90
16655;DHT22;8441;51.344;7.022;2023-01-28T16:15:58;0.00;99.90
16655;DHT22;8441;51.344;7.022;2023-01-28T16:18:30;-0.10;99.90
16655;DHT22;8441;51.344;7.022;2023-01-28T16:21:03;-0.10;99.90
16655;DHT22;8441;51.344;7.022;2023-01-28T16:23:32;-0.20;99.90
16655;DHT22;8441;51.344;7.022;2023-01-28T16:26:01;-0.20;99.90
16655;DHT22;8441;51.344;7.022;2023-01-28T16:28:29;-0.30;99.90
16655;DHT22;8441;51.344;7.022;2023-01-28T16:30:57;-0.30;99.90
16655;DHT22;8441;51.344;7.022;2023-01-28T16:33:25;-0.30;99.90
16655;DHT22;8441;51.344;7.022;2023-01-28T16:35:53;-0.40;99.90
16655;DHT22;8441;51.344;7.022;2023-01-28T16:38:22;-0.50;99.90
16655;DHT22;8441;51.344;7.022;2023-01-28T16:40:49;-0.50;99.90